Time;durP1;ratioP1;P1;durP2;ratioP2;P2;SDS_P1;SDS_P2;PMS_P1;PMS_P2;Temp;Humidity;BMP_temperature;BMP_pressure;BME280_temperature;BME280_humidity;BME280_pressure;Samples;Min_cycle;Max_cycle;Signal;HPM_P1;HPM_P2
2023/01/30 00:00:51;;;;;;;19.27;6.20;;;6.50;99.90;;;;;;4183256;28;20060;-81
2023/01/30 00:02:51;;;;;;;19.98;6.45;;;6.70;99.90;;;;;;4183181;28;20512;-81
2023/01/30 00:04:52;;;;;;;16.60;5.97;;;6.50;99.90;;;;;;4181961;28;20041;-81
2023/01/30 00:06:53;;;;;;;11.45;4.32;;;6.60;99.90;;;;;;4183236;28;20044;-81
2023/01/30 00:08:53;;;;;;;17.17;5.30;;;6.60;99.90;;;;;;4181883;28;20041;-82
2023/01/30 00:10:54;;;;;;;16.02;4.68;;;6.60;99.90;;;;;;4182725;28;20040;-82
2023/01/30 00:12:56;;;;;;;17.40;4.90;;;6.60;99.90;;;;;;4182824;28;20071;-81
2023/01/30 00:14:57;;;;;;;19.35;6.15;;;6.60;99.90;;;;;;4183058;28;20040;-82
2023/01/30 00:16:59;;;;;;;11.35;3.40;;;6.70;99.90;;;;;;4183064;28;20547;-82
2023/01/30 00:18:59;;;;;;;10.93;3.80;;;6.60;99.90;;;;;;4181382;28;20136;-82
2023/01/30 00:21:03;;;;;;;10.48;4.70;;;6.70;99.90;;;;;;4182895;28;20405;-81
2023/01/30 00:23:04;;;;;;;15.77;4.85;;;6.70;99.90;;;;;;4183085;28;20045;-81
2023/01/30 00:25:05;;;;;;;15.13;5.32;;;6.70;99.90;;;;;;4182574;28;20041;-82
2023/01/30 00:27:06;;;;;;;16.45;5.32;;;6.70;99.90;;;;;;4182834;28;20099;-81
2023/01/30 00:29:07;;;;;;;12.55;4.07;;;6.90;99.90;;;;;;4176989;28;20050;-81
2023/01/30 00:31:08;;;;;;;9.85;3.72;;;6.70;99.90;;;;;;4165939;28;20180;-81
2023/01/30 00:33:10;;;;;;;13.25;3.72;;;6.80;99.90;;;;;;4164851;28;20084;-82
2023/01/30 00:35:10;;;;;;;13.98;4.13;;;6.70;99.90;;;;;;4166476;28;20427;-81
2023/01/30 00:37:11;;;;;;;13.48;3.83;;;6.70;99.90;;;;;;4165871;28;20053;-82
2023/01/30 00:39:12;;;;;;;13.18;4.35;;;6.70;99.90;;;;;;4165616;28;20517;-82
2023/01/30 00:41:14;;;;;;;10.23;3.50;;;6.70;99.90;;;;;;4166381;28;20267;-82
2023/01/30 00:47:58;;;;;;;12.80;3.22;;;6.70;99.90;;;;;;4166058;28;20406;-82
2023/01/30 00:49:59;;;;;;;14.10;4.13;;;6.70;99.90;;;;;;4166081;28;20566;-82
2023/01/30 00:52:00;;;;;;;11.63;4.45;;;6.60;99.90;;;;;;4166034;28;20040;-82
2023/01/30 00:54:01;;;;;;;13.80;4.00;;;6.60;99.90;;;;;;4165484;28;20091;-81
2023/01/30 00:56:01;;;;;;;10.00;3.47;;;6.60;99.90;;;;;;4165463;28;20056;-82
2023/01/30 00:58:02;;;;;;;7.88;3.05;;;6.60;99.90;;;;;;4165661;28;20048;-82
2023/01/30 01:00:04;;;;;;;12.40;2.83;;;6.60;99.90;;;;;;4165695;28;20048;-82
2023/01/30 01:02:05;;;;;;;9.80;2.47;;;6.50;99.90;;;;;;4148245;28;20049;-82
2023/01/30 01:04:07;;;;;;;13.00;3.75;;;6.50;99.90;;;;;;4163983;28;20049;-82
2023/01/30 01:06:08;;;;;;;10.82;3.55;;;6.50;99.90;;;;;;4164507;28;20061;-82
2023/01/30 01:08:10;;;;;;;13.77;3.78;;;6.50;99.90;;;;;;4165681;28;20045;-82
2023/01/30 01:10:15;;;;;;;7.45;2.53;;;6.40;99.90;;;;;;4165564;28;20045;-82
2023/01/30 01:12:15;;;;;;;8.40;3.67;;;6.40;99.90;;;;;;4165720;28;20482;-82
2023/01/30 01:14:16;;;;;;;9.15;3.60;;;6.40;99.90;;;;;;4165665;28;20107;-82
2023/01/30 01:16:17;;;;;;;7.60;3.10;;;6.40;99.90;;;;;;4165810;28;20076;-82
2023/01/30 01:18:17;;;;;;;15.65;3.53;;;6.50;99.90;;;;;;4164781;28;20056;-82
2023/01/30 01:20:19;;;;;;;12.40;3.55;;;6.40;99.90;;;;;;4165416;28;20409;-82
2023/01/30 01:22:19;;;;;;;7.88;3.15;;;6.40;99.90;;;;;;4165389;28;20049;-82
2023/01/30 01:24:20;;;;;;;7.97;2.97;;;6.40;99.90;;;;;;4165282;28;20541;-82
2023/01/30 01:26:21;;;;;;;7.15;2.97;;;6.40;99.90;;;;;;4165530;28;20498;-82
2023/01/30 01:28:21;;;;;;;8.82;3.20;;;6.40;99.90;;;;;;4165420;28;20120;-82
2023/01/30 01:30:23;;;;;;;9.32;3.25;;;6.40;99.90;;;;;;4164257;28;20041;-82
2023/01/30 01:32:25;;;;;;;9.52;3.03;;;6.40;99.90;;;;;;4165326;28;20129;-82
2023/01/30 01:34:26;;;;;;;5.65;1.55;;;6.50;99.90;;;;;;4165385;28;20120;-82
2023/01/30 01:36:27;;;;;;;6.10;3.22;;;6.50;99.90;;;;;;4164982;28;20457;-82
2023/01/30 01:38:27;;;;;;;4.45;2.30;;;6.40;99.90;;;;;;4164657;28;20413;-82
2023/01/30 01:42:47;;;;;;;;;;;6.50;99.90;;;;;;4165672;28;20107;-82
2023/01/30 01:45:12;;;;;;;7.72;2.55;;;6.50;99.90;;;;;;4166260;28;20289;-82
2023/01/30 01:47:13;;;;;;;7.90;2.60;;;6.50;99.90;;;;;;4167307;28;20048;-82
2023/01/30 01:49:29;;;;;;;11.23;3.88;;;6.50;99.90;;;;;;4168174;28;20049;-82
2023/01/30 01:51:55;;;;;;;11.80;3.05;;;6.50;99.90;;;;;;4168892;28;20124;-82
2023/01/30 01:54:10;;;;;;;8.50;2.83;;;6.50;99.90;;;;;;4168589;28;20524;-82
2023/01/30 01:56:13;;;;;;;9.93;3.28;;;6.50;99.90;;;;;;4167754;28;20050;-82
2023/01/30 01:58:43;;;;;;;6.78;2.22;;;6.50;99.90;;;;;;4167075;28;20037;-82
2023/01/30 02:00:44;;;;;;;4.82;2.53;;;6.50;99.90;;;;;;4164333;28;20060;-82
2023/01/30 02:02:57;;;;;;;13.02;3.60;;;6.60;99.90;;;;;;4164477;28;20041;-82
2023/01/30 02:05:02;;;;;;;10.57;3.47;;;6.60;99.90;;;;;;4164207;28;20045;-82
2023/01/30 02:07:02;;;;;;;9.70;3.35;;;6.60;99.90;;;;;;4164409;28;20099;-82
2023/01/30 02:09:08;;;;;;;11.20;3.47;;;6.60;99.90;;;;;;4163474;28;20045;-82
2023/01/30 02:11:26;;;;;;;10.43;3.55;;;6.60;99.90;;;;;;4164288;28;20057;-82
2023/01/30 02:13:27;;;;;;;15.02;4.57;;;6.60;99.90;;;;;;4164094;28;20045;-82
2023/01/30 02:15:27;;;;;;;7.30;3.33;;;6.70;99.90;;;;;;4163867;28;20041;-82
2023/01/30 02:17:29;;;;;;;14.60;3.90;;;6.90;99.90;;;;;;4164147;28;20081;-82
2023/01/30 02:19:54;;;;;;;14.48;4.50;;;6.70;99.90;;;;;;4162933;28;20120;-82
2023/01/30 02:22:13;;;;;;;20.95;4.30;;;6.70;99.90;;;;;;4152453;28;20136;-82
2023/01/30 02:24:48;;;;;;;10.52;3.40;;;6.70;99.90;;;;;;4163662;28;20045;-82
2023/01/30 02:27:07;;;;;;;12.05;3.33;;;6.70;99.90;;;;;;4164236;28;20088;-82
2023/01/30 02:29:31;;;;;;;16.50;3.53;;;6.90;99.90;;;;;;4167165;28;20044;-82
2023/01/30 02:31:47;;;;;;;15.50;3.47;;;6.70;99.90;;;;;;4180012;28;20048;-82
2023/01/30 02:33:59;;;;;;;22.42;4.10;;;6.70;99.90;;;;;;4179721;28;20572;-82
2023/01/30 02:36:15;;;;;;;15.00;3.25;;;6.70;99.90;;;;;;4180208;28;20528;-82
2023/01/30 02:39:01;;;;;;;23.35;5.05;;;6.70;99.90;;;;;;4180290;28;20389;-82
2023/01/30 02:41:20;;;;;;;20.48;3.25;;;6.70;99.90;;;;;;4144576;28;20056;-82
2023/01/30 02:43:40;;;;;;;19.52;4.45;;;6.70;99.90;;;;;;4169534;28;20528;-82
2023/01/30 02:46:00;;;;;;;22.90;3.78;;;6.70;99.90;;;;;;4179630;28;20044;-82
2023/01/30 02:48:04;;;;;;;12.70;2.58;;;6.70;99.90;;;;;;4180260;28;20085;-82
2023/01/30 02:50:13;;;;;;;17.55;4.03;;;6.80;99.90;;;;;;4179894;28;20493;-82
2023/01/30 02:52:15;;;;;;;;;;;6.80;99.90;;;;;;4180256;28;20051;-82
2023/01/30 02:54:16;;;;;;;19.33;3.17;;;6.80;99.90;;;;;;4178635;28;20011;-82
2023/01/30 02:56:17;;;;;;;15.23;3.55;;;6.80;99.90;;;;;;4140993;28;1119950;-82
2023/01/30 02:58:22;;;;;;;20.50;3.85;;;6.80;99.90;;;;;;4178720;28;20568;-82
2023/01/30 03:00:52;;;;;;;19.10;3.80;;;6.80;99.90;;;;;;4179386;28;20044;-82
2023/01/30 03:03:08;;;;;;;23.92;4.30;;;6.80;99.90;;;;;;4179387;28;20078;-82
2023/01/30 03:05:26;;;;;;;12.93;2.65;;;6.80;99.90;;;;;;4179548;28;20175;-82
2023/01/30 03:07:35;;;;;;;19.57;4.67;;;6.80;99.90;;;;;;4180633;28;20571;-82
2023/01/30 03:09:50;;;;;;;10.55;2.35;;;6.80;99.90;;;;;;4180844;28;20294;-82
2023/01/30 03:12:13;;;;;;;13.85;3.13;;;6.70;99.90;;;;;;4179991;28;20099;-82
2023/01/30 03:14:24;;;;;;;18.77;3.45;;;6.70;99.90;;;;;;4180764;28;20120;-82
2023/01/30 03:16:34;;;;;;;21.83;2.80;;;6.70;99.90;;;;;;4180527;28;20059;-82
2023/01/30 03:18:35;;;;;;;17.20;3.88;;;6.80;99.90;;;;;;4180814;28;20049;-82
2023/01/30 03:20:40;;;;;;;16.98;3.53;;;6.70;99.90;;;;;;4180819;28;20076;-82
2023/01/30 03:22:41;;;;;;;21.15;4.18;;;6.70;99.90;;;;;;4162975;28;20084;-82
2023/01/30 03:24:42;;;;;;;22.15;3.17;;;6.70;99.90;;;;;;4180846;28;20485;-82
2023/01/30 03:26:47;;;;;;;12.57;2.33;;;6.80;99.90;;;;;;4180678;28;20049;-81
2023/01/30 03:28:50;;;;;;;15.10;2.15;;;6.60;99.90;;;;;;4180768;28;20041;-81
2023/01/30 03:30:51;;;;;;;18.00;3.30;;;6.60;99.90;;;;;;4180390;28;20080;-81
2023/01/30 03:32:52;;;;;;;14.77;2.83;;;6.50;99.90;;;;;;4180659;28;20398;-81
2023/01/30 03:34:53;;;;;;;22.20;3.30;;;6.50;99.90;;;;;;4180456;28;20041;-82
2023/01/30 03:36:54;;;;;;;20.85;4.20;;;6.40;99.90;;;;;;4180284;28;20504;-81
2023/01/30 03:38:55;;;;;;;20.90;3.33;;;6.40;99.90;;;;;;4180567;28;20033;-81
2023/01/30 03:40:57;;;;;;;15.48;2.58;;;6.40;99.90;;;;;;4179526;28;20090;-81
2023/01/30 03:42:58;;;;;;;18.38;3.05;;;6.40;99.90;;;;;;4180570;28;20128;-81
2023/01/30 03:44:59;;;;;;;10.65;2.75;;;6.40;99.90;;;;;;4180596;28;20045;-81
2023/01/30 03:47:01;;;;;;;15.30;3.22;;;6.40;99.90;;;;;;4180339;28;20048;-81
2023/01/30 03:49:01;;;;;;;13.35;2.40;;;6.30;99.90;;;;;;4180552;28;20041;-81
2023/01/30 03:51:02;;;;;;;16.92;4.22;;;6.30;99.90;;;;;;4180385;28;20045;-81
2023/01/30 03:53:03;;;;;;;12.95;2.90;;;6.20;99.90;;;;;;4181422;28;20048;-81
2023/01/30 03:55:03;;;;;;;11.63;2.75;;;6.20;99.90;;;;;;4183253;28;20037;-81
2023/01/30 03:57:04;;;;;;;11.40;3.45;;;6.10;99.90;;;;;;4183523;28;20482;-82
2023/01/30 03:59:05;;;;;;;22.80;3.67;;;6.10;99.90;;;;;;4183358;28;20099;-82
2023/01/30 04:01:05;;;;;;;23.08;3.38;;;6.10;99.90;;;;;;4183449;28;20040;-82
2023/01/30 04:03:06;;;;;;;16.80;2.50;;;6.00;99.90;;;;;;4183366;28;20044;-82
2023/01/30 04:05:07;;;;;;;23.73;3.55;;;6.00;99.90;;;;;;4183471;28;20086;-82
2023/01/30 04:07:08;;;;;;;18.70;3.50;;;6.00;99.90;;;;;;4183095;28;20452;-82
2023/01/30 04:09:09;;;;;;;27.70;4.50;;;6.00;99.90;;;;;;4183434;28;20063;-82
2023/01/30 04:11:10;;;;;;;20.33;2.53;;;5.90;99.90;;;;;;4182990;28;20045;-82
2023/01/30 04:13:11;;;;;;;22.67;3.95;;;5.90;99.90;;;;;;4183271;28;20607;-82
2023/01/30 04:15:13;;;;;;;20.00;2.80;;;5.90;99.90;;;;;;4182900;28;20130;-82
2023/01/30 04:17:14;;;;;;;15.75;3.30;;;5.80;99.90;;;;;;4183131;28;20071;-82
2023/01/30 04:19:14;;;;;;;15.23;2.17;;;5.90;99.90;;;;;;4184213;28;20041;-81
2023/01/30 04:21:15;;;;;;;15.57;3.45;;;5.90;99.90;;;;;;4184337;28;20049;-82
2023/01/30 04:23:16;;;;;;;22.35;3.25;;;5.80;99.90;;;;;;4184845;28;20041;-82
2023/01/30 04:25:18;;;;;;;15.27;3.33;;;5.80;99.90;;;;;;4184273;28;20111;-82
2023/01/30 04:27:18;;;;;;;16.75;2.63;;;5.80;99.90;;;;;;4183880;28;20124;-82
2023/01/30 04:29:19;;;;;;;17.25;2.30;;;5.70;99.90;;;;;;4184257;28;20599;-82
2023/01/30 04:31:21;;;;;;;15.02;2.40;;;5.70;99.90;;;;;;4184426;28;20080;-82
2023/01/30 04:33:22;;;;;;;19.35;2.58;;;5.60;99.90;;;;;;4184424;28;20485;-82
2023/01/30 04:35:23;;;;;;;16.17;2.63;;;5.90;99.90;;;;;;4184596;28;20078;-82
2023/01/30 04:37:23;;;;;;;16.02;1.98;;;5.60;99.90;;;;;;4184760;28;20045;-82
2023/01/30 04:39:25;;;;;;;13.18;2.22;;;5.90;99.90;;;;;;4184065;28;20076;-82
2023/01/30 04:41:26;;;;;;;18.50;2.40;;;5.50;99.90;;;;;;4183566;28;20041;-82
2023/01/30 04:43:28;;;;;;;15.63;3.63;;;5.50;99.90;;;;;;4183539;28;20045;-83
2023/01/30 04:45:30;;;;;;;16.42;2.95;;;5.40;99.90;;;;;;4182902;28;20132;-82
2023/01/30 04:47:30;;;;;;;20.95;3.63;;;6.10;99.90;;;;;;4183325;28;20041;-82
2023/01/30 04:49:32;;;;;;;14.63;2.30;;;5.40;99.90;;;;;;4182876;28;20044;-82
2023/01/30 04:51:32;;;;;;;14.23;1.80;;;5.70;99.90;;;;;;4182189;28;20037;-82
2023/01/30 04:53:33;;;;;;;19.25;2.50;;;5.60;99.90;;;;;;4183316;28;20044;-82
2023/01/30 04:55:34;;;;;;;12.88;2.92;;;5.30;99.90;;;;;;4183149;28;20057;-82
2023/01/30 04:57:36;;;;;;;16.80;2.83;;;5.30;99.90;;;;;;4182493;28;20033;-82
2023/01/30 04:59:37;;;;;;;23.75;3.70;;;6.00;99.90;;;;;;4165642;28;20083;-81
2023/01/30 05:01:39;;;;;;;15.80;2.83;;;5.70;99.90;;;;;;4181728;28;20091;-82
2023/01/30 05:03:41;;;;;;;16.77;2.42;;;5.40;99.90;;;;;;4182514;28;20041;-82
2023/01/30 05:05:44;;;;;;;21.40;4.07;;;5.40;99.90;;;;;;4181035;28;20177;-82
2023/01/30 05:07:46;;;;;;;19.75;3.13;;;5.40;99.90;;;;;;4183045;28;20049;-81
2023/01/30 05:09:47;;;;;;;18.83;2.45;;;5.40;99.90;;;;;;4183209;28;20078;-81
2023/01/30 05:11:47;;;;;;;23.95;4.13;;;5.40;99.90;;;;;;4181033;28;20123;-81
2023/01/30 05:13:49;;;;;;;12.43;3.15;;;5.70;99.90;;;;;;4182722;28;20041;-81
2023/01/30 05:15:49;;;;;;;15.00;2.30;;;5.30;99.90;;;;;;4182609;28;20124;-81
2023/01/30 05:17:50;;;;;;;21.75;2.92;;;5.40;99.90;;;;;;4182855;28;20045;-81
2023/01/30 05:19:51;;;;;;;21.25;4.35;;;5.30;99.90;;;;;;4181980;28;20071;-81
2023/01/30 05:21:52;;;;;;;25.13;3.50;;;5.30;99.90;;;;;;4182523;28;20041;-81
2023/01/30 05:23:54;;;;;;;24.20;3.42;;;5.30;99.90;;;;;;4182434;28;20095;-81
2023/01/30 05:25:55;;;;;;;16.15;2.28;;;5.30;99.90;;;;;;4182324;28;20098;-81
2023/01/30 05:27:57;;;;;;;26.08;3.67;;;5.20;99.90;;;;;;4182160;28;20045;-81
2023/01/30 05:29:59;;;;;;;17.58;3.83;;;5.30;99.90;;;;;;4181867;28;20444;-81
2023/01/30 05:31:59;;;;;;;22.42;2.95;;;5.30;99.90;;;;;;4181936;28;20033;-81
2023/01/30 05:34:00;;;;;;;18.70;2.85;;;5.30;99.90;;;;;;4182171;28;20056;-81
2023/01/30 05:36:01;;;;;;;25.15;3.28;;;5.30;99.90;;;;;;4182364;28;20397;-81
2023/01/30 05:38:02;;;;;;;14.38;2.90;;;5.30;99.90;;;;;;4180806;28;20049;-81
2023/01/30 05:40:03;;;;;;;18.30;2.67;;;5.30;99.90;;;;;;4180848;28;20067;-81
2023/01/30 05:42:04;;;;;;;15.57;3.30;;;5.20;99.90;;;;;;4180901;28;20164;-81
2023/01/30 05:44:05;;;;;;;29.85;3.58;;;5.20;99.90;;;;;;4181349;28;20056;-81
2023/01/30 05:46:08;;;;;;;23.02;2.92;;;5.20;99.90;;;;;;4182107;28;20485;-81
2023/01/30 05:48:09;;;;;;;27.63;3.13;;;5.10;99.90;;;;;;4181976;28;20103;-81
2023/01/30 05:50:10;;;;;;;19.42;4.13;;;5.20;99.90;;;;;;4181908;28;20044;-81
2023/01/30 05:52:12;;;;;;;25.65;4.07;;;5.20;99.90;;;;;;4181773;28;20409;-81
2023/01/30 05:54:13;;;;;;;19.20;2.72;;;5.20;99.90;;;;;;4181919;28;20505;-81
2023/01/30 05:56:15;;;;;;;15.63;3.80;;;5.20;99.90;;;;;;4181589;28;20087;-81
2023/01/30 05:58:16;;;;;;;21.15;3.22;;;5.20;99.90;;;;;;4180847;28;20045;-82
2023/01/30 06:00:17;;;;;;;21.60;3.20;;;5.40;99.90;;;;;;4181712;28;20508;-82
2023/01/30 06:02:17;;;;;;;28.73;3.58;;;5.20;99.90;;;;;;4180775;28;20112;-82
2023/01/30 06:04:18;;;;;;;20.20;3.05;;;5.40;99.90;;;;;;4182260;28;20036;-82
2023/01/30 06:06:21;;;;;;;21.90;4.18;;;5.50;99.90;;;;;;4180846;28;20548;-81
2023/01/30 06:08:22;;;;;;;21.08;2.47;;;5.20;99.90;;;;;;4184483;28;20053;-82
2023/01/30 06:10:23;;;;;;;22.65;3.72;;;5.20;99.90;;;;;;4180602;28;20110;-82
2023/01/30 06:12:23;;;;;;;21.05;3.25;;;5.30;99.90;;;;;;4181773;28;20077;-82
2023/01/30 06:14:25;;;;;;;25.27;3.50;;;5.20;99.90;;;;;;4181767;28;20051;-82
2023/01/30 06:16:26;;;;;;;20.13;3.47;;;5.30;99.90;;;;;;4181753;28;20094;-82
2023/01/30 06:18:26;;;;;;;17.13;2.03;;;5.30;99.90;;;;;;4180225;28;20048;-82
2023/01/30 06:20:28;;;;;;;21.52;2.38;;;5.40;99.90;;;;;;4181486;28;20045;-80
2023/01/30 06:22:29;;;;;;;22.83;3.85;;;5.40;99.90;;;;;;4182064;28;20037;-80
2023/01/30 06:24:29;;;;;;;16.85;3.78;;;5.40;99.90;;;;;;4182183;28;20044;-80
2023/01/30 06:26:31;;;;;;;20.42;3.90;;;5.70;99.90;;;;;;4182066;28;20090;-80
2023/01/30 06:28:33;;;;;;;19.10;3.65;;;5.50;99.90;;;;;;4182091;28;20049;-82
2023/01/30 06:30:33;;;;;;;21.00;2.97;;;5.50;99.90;;;;;;4181281;28;20493;-82
2023/01/30 06:32:34;;;;;;;20.08;2.63;;;5.50;99.90;;;;;;4181887;28;20033;-82
2023/01/30 06:34:35;;;;;;;15.32;3.25;;;5.50;99.90;;;;;;4181983;28;20189;-81
2023/01/30 06:36:35;;;;;;;18.67;2.70;;;5.50;99.90;;;;;;4182072;28;20037;-81
2023/01/30 06:38:36;;;;;;;27.95;3.95;;;5.60;99.90;;;;;;4182041;28;20115;-81
2023/01/30 06:40:37;;;;;;;31.42;3.50;;;5.50;99.90;;;;;;4181354;28;20041;-81
2023/01/30 06:42:44;;;;;;;19.55;2.92;;;5.70;99.90;;;;;;4181606;28;20072;-81
2023/01/30 06:44:44;;;;;;;26.08;4.70;;;5.90;99.90;;;;;;4182074;28;20049;-81
2023/01/30 06:46:45;;;;;;;15.30;2.80;;;5.60;99.90;;;;;;4181999;28;20052;-81
2023/01/30 06:48:46;;;;;;;24.20;4.35;;;5.60;99.90;;;;;;4182135;28;20041;-81
2023/01/30 06:50:47;;;;;;;18.52;2.92;;;5.60;99.90;;;;;;4181463;28;20082;-81
2023/01/30 06:52:49;;;;;;;15.55;2.45;;;5.60;99.90;;;;;;4176245;28;20139;-82
2023/01/30 06:54:50;;;;;;;22.83;4.28;;;5.60;99.90;;;;;;4165216;28;20117;-81
2023/01/30 06:56:50;;;;;;;20.33;2.97;;;5.60;99.90;;;;;;4164636;28;20045;-81
2023/01/30 06:58:51;;;;;;;17.92;4.15;;;5.60;99.90;;;;;;4163783;28;20097;-81
2023/01/30 07:00:53;;;;;;;18.48;2.78;;;5.60;99.90;;;;;;4164777;28;20045;-81
2023/01/30 07:02:53;;;;;;;19.67;3.67;;;5.60;99.90;;;;;;4164431;28;20470;-81
2023/01/30 07:04:54;;;;;;;16.65;3.20;;;5.60;99.90;;;;;;4162704;28;20060;-82
2023/01/30 07:06:57;;;;;;;15.05;2.63;;;5.60;99.90;;;;;;4164497;28;20087;-81
2023/01/30 07:08:58;;;;;;;17.75;1.88;;;5.60;99.90;;;;;;4164268;28;20053;-81
2023/01/30 07:10:58;;;;;;;21.55;3.15;;;5.70;99.90;;;;;;4164421;28;20042;-81
2023/01/30 07:12:59;;;;;;;23.17;3.08;;;5.60;99.90;;;;;;4164398;28;20047;-81
2023/01/30 07:14:59;;;;;;;22.90;3.30;;;5.70;99.90;;;;;;4162437;28;20088;-81
2023/01/30 07:17:00;;;;;;;26.40;2.90;;;5.60;99.90;;;;;;4164593;28;20112;-82
2023/01/30 07:19:01;;;;;;;28.00;3.72;;;5.80;99.90;;;;;;4164173;28;20474;-81
2023/01/30 07:21:01;;;;;;;29.80;3.45;;;5.60;99.90;;;;;;4164330;28;20104;-81
2023/01/30 07:23:03;;;;;;;23.15;3.67;;;5.70;99.90;;;;;;4163846;28;20501;-81
2023/01/30 07:25:05;;;;;;;20.17;3.72;;;5.60;99.90;;;;;;4164313;28;20046;-81
2023/01/30 07:27:07;;;;;;;14.77;2.80;;;5.60;99.90;;;;;;4168563;28;20056;-81
2023/01/30 07:29:07;;;;;;;30.27;4.35;;;5.60;99.90;;;;;;4199513;28;20139;-82
2023/01/30 07:31:08;;;;;;;19.65;3.92;;;5.70;99.90;;;;;;4183666;28;20119;-81
2023/01/30 07:33:09;;;;;;;28.60;4.70;;;5.60;99.90;;;;;;4182842;28;20485;-81
2023/01/30 07:35:11;;;;;;;17.27;3.05;;;5.70;99.90;;;;;;4171354;28;20076;-81
2023/01/30 07:37:12;;;;;;;20.05;3.30;;;5.70;99.90;;;;;;4166021;28;20077;-81
2023/01/30 07:39:12;;;;;;;19.92;3.00;;;5.70;99.90;;;;;;4166722;28;20390;-81
2023/01/30 07:41:13;;;;;;;29.08;3.55;;;5.80;99.90;;;;;;4166061;28;20052;-81
2023/01/30 07:43:14;;;;;;;23.65;3.53;;;5.70;99.90;;;;;;4167233;28;20053;-81
2023/01/30 07:45:14;;;;;;;26.30;3.58;;;5.80;99.90;;;;;;4166068;28;20111;-82
2023/01/30 07:47:15;;;;;;;20.27;3.45;;;5.80;99.90;;;;;;4167255;28;20049;-81
2023/01/30 07:49:17;;;;;;;20.95;3.30;;;5.80;99.90;;;;;;4167047;28;20117;-81
2023/01/30 07:51:17;;;;;;;21.88;4.10;;;5.80;99.90;;;;;;4166432;28;20045;-81
2023/01/30 07:53:18;;;;;;;18.60;2.80;;;5.80;99.90;;;;;;4166933;28;20120;-81
2023/01/30 07:55:19;;;;;;;21.52;3.28;;;5.80;99.90;;;;;;4166725;28;20041;-81
2023/01/30 07:57:19;;;;;;;24.85;4.65;;;5.90;99.90;;;;;;4166902;28;20089;-81
2023/01/30 07:59:20;;;;;;;19.52;3.83;;;5.90;99.90;;;;;;4166605;28;20107;-80
2023/01/30 08:01:21;;;;;;;25.13;3.20;;;5.90;99.90;;;;;;4166109;28;20041;-81
2023/01/30 08:03:23;;;;;;;20.70;2.65;;;6.20;99.90;;;;;;4166855;28;20124;-81
2023/01/30 08:05:24;;;;;;;22.80;2.95;;;5.90;99.90;;;;;;4167017;28;20088;-81
2023/01/30 08:07:25;;;;;;;18.42;2.53;;;6.10;99.90;;;;;;4165579;28;20510;-82
2023/01/30 08:09:25;;;;;;;21.38;3.47;;;6.00;99.90;;;;;;4167347;28;20049;-82
2023/01/30 08:11:26;;;;;;;14.88;3.40;;;6.00;99.90;;;;;;4170668;28;20036;-82
2023/01/30 08:13:28;;;;;;;26.08;4.03;;;6.00;99.90;;;;;;4183557;28;20056;-81
2023/01/30 08:15:30;;;;;;;18.80;3.42;;;6.00;99.90;;;;;;4178011;28;20057;-81
2023/01/30 08:17:31;;;;;;;26.15;4.38;;;6.00;99.90;;;;;;4166781;28;20045;-81
2023/01/30 08:19:32;;;;;;;25.48;3.40;;;6.00;99.90;;;;;;4165152;28;20041;-81
2023/01/30 08:21:32;;;;;;;24.90;3.60;;;6.00;99.90;;;;;;4166831;28;20137;-81
2023/01/30 08:23:33;;;;;;;16.98;2.20;;;6.10;99.90;;;;;;4166682;28;20125;-81
2023/01/30 08:25:34;;;;;;;16.08;2.85;;;6.00;99.90;;;;;;4166781;28;20464;-81
2023/01/30 08:27:35;;;;;;;22.33;3.55;;;6.10;99.90;;;;;;4166091;28;20041;-81
2023/01/30 08:29:36;;;;;;;21.30;2.95;;;6.10;99.90;;;;;;4170810;28;20127;-81
2023/01/30 08:31:36;;;;;;;19.38;2.72;;;6.10;99.90;;;;;;4182750;28;20040;-82
2023/01/30 08:33:38;;;;;;;22.67;3.00;;;6.10;99.90;;;;;;4182148;28;20048;-81
2023/01/30 08:35:40;;;;;;;19.98;3.45;;;6.10;99.90;;;;;;4181305;28;20367;-81
2023/01/30 08:37:41;;;;;;;25.52;3.63;;;6.10;99.90;;;;;;4182896;28;20098;-81
2023/01/30 08:39:42;;;;;;;18.02;2.45;;;6.10;99.90;;;;;;4182748;28;20049;-81
2023/01/30 08:41:42;;;;;;;11.25;2.80;;;6.30;99.90;;;;;;4183155;28;20069;-81
2023/01/30 08:43:44;;;;;;;19.33;2.70;;;6.20;99.90;;;;;;4182954;28;20044;-81
2023/01/30 08:45:46;;;;;;;17.80;2.42;;;6.30;99.90;;;;;;4182840;28;20080;-81
2023/01/30 08:47:46;;;;;;;19.20;2.83;;;6.30;99.90;;;;;;4180563;28;20049;-81
2023/01/30 08:49:47;;;;;;;21.50;3.35;;;6.30;99.90;;;;;;4182655;28;20047;-81
2023/01/30 08:51:48;;;;;;;27.30;3.00;;;6.30;99.90;;;;;;4182239;28;20095;-81
2023/01/30 08:53:48;;;;;;;20.70;2.60;;;6.30;99.90;;;;;;4182445;28;20040;-81
2023/01/30 08:55:51;;;;;;;18.02;2.75;;;6.40;99.90;;;;;;4181941;28;20426;-81
2023/01/30 08:57:55;;;;;;;20.05;3.80;;;6.40;99.90;;;;;;4182455;28;20045;-81
2023/01/30 08:59:56;;;;;;;20.00;3.58;;;6.40;99.90;;;;;;4180956;28;20549;-81
2023/01/30 09:01:57;;;;;;;21.50;3.78;;;6.40;99.90;;;;;;4182243;28;20087;-81
2023/01/30 09:03:58;;;;;;;17.90;2.75;;;6.50;99.90;;;;;;4179862;28;20115;-81
2023/01/30 09:05:59;;;;;;;16.52;2.83;;;6.50;99.90;;;;;;4181989;28;20048;-81
2023/01/30 09:08:00;;;;;;;22.17;3.40;;;6.50;99.90;;;;;;4182235;28;20076;-81
2023/01/30 09:10:01;;;;;;;23.85;3.05;;;6.60;99.90;;;;;;4182258;28;20382;-81
2023/01/30 09:12:03;;;;;;;17.42;3.65;;;6.50;99.90;;;;;;4182020;28;20037;-81
2023/01/30 09:14:03;;;;;;;17.58;2.38;;;6.50;99.90;;;;;;4180882;28;20493;-82
2023/01/30 09:16:05;;;;;;;17.30;3.85;;;6.50;99.90;;;;;;4163047;28;20048;-82
2023/01/30 09:18:07;;;;;;;17.50;2.25;;;6.50;99.90;;;;;;4165537;28;20041;-81
2023/01/30 09:20:09;;;;;;;19.55;3.00;;;6.50;99.90;;;;;;4165967;28;20505;-81
2023/01/30 09:22:11;;;;;;;21.08;2.88;;;6.50;99.90;;;;;;4164252;28;20104;-81
2023/01/30 09:24:12;;;;;;;25.48;4.95;;;6.50;99.90;;;;;;4165862;28;20045;-82
2023/01/30 09:26:13;;;;;;;17.40;2.47;;;6.60;99.90;;;;;;4165536;28;20506;-81
2023/01/30 09:28:13;;;;;;;29.98;4.53;;;6.50;99.90;;;;;;4164312;28;20052;-81
2023/01/30 09:30:15;;;;;;;25.77;3.20;;;6.60;99.90;;;;;;4165690;28;20041;-81
2023/01/30 09:32:15;;;;;;;26.13;3.95;;;6.50;99.90;;;;;;4164739;28;20048;-82
2023/01/30 09:34:16;;;;;;;19.33;2.70;;;6.50;99.90;;;;;;4165807;28;20099;-82
2023/01/30 09:36:18;;;;;;;23.80;4.03;;;6.50;99.90;;;;;;4165065;28;20596;-82
2023/01/30 09:38:19;;;;;;;20.55;2.83;;;6.40;99.90;;;;;;4165769;28;20486;-82
2023/01/30 09:40:25;;;;;;;25.40;3.72;;;6.40;99.90;;;;;;4165332;28;20053;-81
2023/01/30 09:42:51;;;;;;;25.92;2.75;;;6.40;99.90;;;;;;4164416;28;20075;-82
2023/01/30 09:45:14;;;;;;;22.38;3.78;;;6.40;99.90;;;;;;4164271;28;20041;-81
2023/01/30 09:47:33;;;;;;;24.40;4.13;;;6.40;99.90;;;;;;4165693;28;20489;-81
2023/01/30 09:49:45;;;;;;;28.38;4.53;;;6.60;99.90;;;;;;4165364;28;20076;-81
2023/01/30 09:52:11;;;;;;;20.88;4.32;;;6.80;99.90;;;;;;4162870;28;20116;-81
2023/01/30 09:54:27;;;;;;;23.40;3.30;;;6.90;99.90;;;;;;4164999;28;20045;-81
2023/01/30 09:56:29;;;;;;;22.52;4.18;;;7.00;99.90;;;;;;4165009;28;20072;-81
2023/01/30 09:58:43;;;;;;;22.60;3.17;;;7.20;99.90;;;;;;4164799;28;20124;-81
2023/01/30 10:00:45;;;;;;;16.55;4.20;;;7.60;99.90;;;;;;4164992;28;20486;-82
2023/01/30 10:02:56;;;;;;;21.40;3.58;;;8.10;99.90;;;;;;4164673;28;20099;-82
2023/01/30 10:04:58;;;;;;;25.83;3.58;;;8.00;99.90;;;;;;4164604;28;20056;-81
2023/01/30 10:07:27;;;;;;;15.95;2.40;;;7.80;99.90;;;;;;4164733;28;20120;-81
2023/01/30 10:09:34;;;;;;;25.13;2.97;;;7.60;99.90;;;;;;4156526;28;20599;-81
2023/01/30 10:11:41;;;;;;;22.00;3.97;;;7.60;99.90;;;;;;4164629;28;20053;-81
2023/01/30 10:14:15;;;;;;;25.95;3.35;;;7.60;99.90;;;;;;4164194;28;20073;-81
2023/01/30 10:16:19;;;;;;;27.30;4.57;;;7.60;99.90;;;;;;4164673;28;20053;-81
2023/01/30 10:18:28;;;;;;;24.38;3.40;;;7.80;99.90;;;;;;4164174;28;20045;-81
2023/01/30 10:20:57;;;;;;;30.65;4.70;;;8.00;99.90;;;;;;4164681;28;20498;-82
2023/01/30 10:23:32;;;;;;;21.88;4.57;;;8.00;99.90;;;;;;4164836;28;20046;-82
2023/01/30 10:25:38;;;;;;;8.82;1.58;;;;;;;;;;4164255;28;20053;-82
2023/01/30 10:27:51;;;;;;;6.55;1.92;;;7.50;99.90;;;;;;4163618;28;20509;-82
2023/01/30 10:29:55;;;;;;;10.32;1.38;;;7.10;99.90;;;;;;4164792;28;20379;-81
2023/01/30 10:32:14;;;;;;;9.32;1.10;;;6.80;99.90;;;;;;4164502;28;20046;-81
2023/01/30 10:34:24;;;;;;;7.00;1.85;;;6.60;99.90;;;;;;4166350;28;20076;-81
2023/01/30 10:36:43;;;;;;;6.00;0.90;;;6.70;99.90;;;;;;4177745;28;20037;-81
2023/01/30 10:38:50;;;;;;;7.13;0.93;;;6.60;99.90;;;;;;4180839;28;20115;-80
2023/01/30 10:40:58;;;;;;;9.27;1.20;;;6.50;99.90;;;;;;4181179;28;20413;-83
2023/01/30 10:43:12;;;;;;;9.07;0.70;;;6.40;99.90;;;;;;4181178;28;20879;-82
2023/01/30 10:45:19;;;;;;;12.25;1.10;;;6.30;99.90;;;;;;4180926;28;20068;-82
2023/01/30 10:47:32;;;;;;;4.60;0.85;;;6.30;99.90;;;;;;4181360;28;20052;-81
2023/01/30 10:49:48;;;;;;;4.38;0.77;;;6.60;99.90;;;;;;4178730;28;20053;-81
2023/01/30 10:52:02;;;;;;;6.95;0.80;;;7.00;99.90;;;;;;4180118;28;20044;-82
2023/01/30 10:54:16;;;;;;;9.35;0.77;;;7.40;99.90;;;;;;4168637;28;20045;-81